sensor_id;sensor_type;location;lat;lon;timestamp;P1;durP1;ratioP1;P2;durP2;ratioP2
78312;SDS011;67568;47.438;21.408;2023-08-06T00:01:29;10.63;;;5.35;;
78312;SDS011;67568;47.438;21.408;2023-08-06T00:03:56;8.70;;;4.88;;
78312;SDS011;67568;47.438;21.408;2023-08-06T00:06:23;9.63;;;4.50;;
78312;SDS011;67568;47.438;21.408;2023-08-06T00:08:50;8.10;;;4.60;;
78312;SDS011;67568;47.438;21.408;2023-08-06T00:11:16;8.38;;;4.60;;
78312;SDS011;67568;47.438;21.408;2023-08-06T00:13:46;8.85;;;4.40;;
78312;SDS011;67568;47.438;21.408;2023-08-06T00:16:16;9.77;;;4.70;;
78312;SDS011;67568;47.438;21.408;2023-08-06T00:18:45;8.93;;;4.65;;
78312;SDS011;67568;47.438;21.408;2023-08-06T00:21:12;7.60;;;4.23;;
78312;SDS011;67568;47.438;21.408;2023-08-06T00:23:39;9.07;;;4.45;;
78312;SDS011;67568;47.438;21.408;2023-08-06T00:26:06;7.90;;;4.65;;
78312;SDS011;67568;47.438;21.408;2023-08-06T00:28:33;9.13;;;4.63;;
78312;SDS011;67568;47.438;21.408;2023-08-06T00:31:02;8.75;;;4.47;;
78312;SDS011;67568;47.438;21.408;2023-08-06T00:33:29;10.53;;;4.77;;
78312;SDS011;67568;47.438;21.408;2023-08-06T00:35:56;8.65;;;4.40;;
78312;SDS011;67568;47.438;21.408;2023-08-06T00:38:25;9.13;;;4.25;;
78312;SDS011;67568;47.438;21.408;2023-08-06T00:40:51;9.10;;;4.70;;
78312;SDS011;67568;47.438;21.408;2023-08-06T00:43:18;8.20;;;4.30;;
78312;SDS011;67568;47.438;21.408;2023-08-06T00:45:45;9.90;;;4.50;;
78312;SDS011;67568;47.438;21.408;2023-08-06T00:48:12;7.90;;;4.20;;
78312;SDS011;67568;47.438;21.408;2023-08-06T00:50:39;7.93;;;3.85;;
78312;SDS011;67568;47.438;21.408;2023-08-06T00:53:06;10.27;;;3.65;;
78312;SDS011;67568;47.438;21.408;2023-08-06T00:55:33;6.18;;;3.35;;
78312;SDS011;67568;47.438;21.408;2023-08-06T00:58:04;7.33;;;3.60;;
78312;SDS011;67568;47.438;21.408;2023-08-06T01:00:34;8.50;;;3.70;;
78312;SDS011;67568;47.438;21.408;2023-08-06T01:03:01;7.32;;;3.13;;
78312;SDS011;67568;47.438;21.408;2023-08-06T01:05:28;8.85;;;3.75;;
78312;SDS011;67568;47.438;21.408;2023-08-06T01:13:33;8.95;;;3.72;;
78312;SDS011;67568;47.438;21.408;2023-08-06T01:16:17;7.35;;;4.10;;
78312;SDS011;67568;47.438;21.408;2023-08-06T01:18:44;7.47;;;3.92;;
78312;SDS011;67568;47.438;21.408;2023-08-06T01:21:14;9.57;;;4.38;;
78312;SDS011;67568;47.438;21.408;2023-08-06T01:23:42;8.40;;;4.40;;
78312;SDS011;67568;47.438;21.408;2023-08-06T01:26:27;7.88;;;4.00;;
78312;SDS011;67568;47.438;21.408;2023-08-06T01:29:03;6.70;;;3.53;;
78312;SDS011;67568;47.438;21.408;2023-08-06T01:31:32;8.98;;;4.20;;
78312;SDS011;67568;47.438;21.408;2023-08-06T01:34:05;6.78;;;3.70;;
78312;SDS011;67568;47.438;21.408;2023-08-06T01:36:37;11.57;;;3.77;;
78312;SDS011;67568;47.438;21.408;2023-08-06T01:39:05;9.43;;;3.50;;
78312;SDS011;67568;47.438;21.408;2023-08-06T01:41:32;6.43;;;3.35;;
78312;SDS011;67568;47.438;21.408;2023-08-06T01:43:58;9.65;;;3.65;;
78312;SDS011;67568;47.438;21.408;2023-08-06T01:46:25;9.68;;;3.50;;
78312;SDS011;67568;47.438;21.408;2023-08-06T01:48:53;7.10;;;3.50;;
78312;SDS011;67568;47.438;21.408;2023-08-06T01:51:20;7.10;;;3.35;;
78312;SDS011;67568;47.438;21.408;2023-08-06T01:53:47;7.47;;;3.50;;
78312;SDS011;67568;47.438;21.408;2023-08-06T01:56:13;6.30;;;3.30;;
78312;SDS011;67568;47.438;21.408;2023-08-06T01:58:40;6.28;;;3.00;;
78312;SDS011;67568;47.438;21.408;2023-08-06T02:01:07;6.70;;;3.00;;
78312;SDS011;67568;47.438;21.408;2023-08-06T02:03:34;6.05;;;2.90;;
78312;SDS011;67568;47.438;21.408;2023-08-06T02:06:01;6.38;;;2.83;;
78312;SDS011;67568;47.438;21.408;2023-08-06T02:08:27;7.53;;;2.80;;
78312;SDS011;67568;47.438;21.408;2023-08-06T02:10:54;7.57;;;2.90;;
78312;SDS011;67568;47.438;21.408;2023-08-06T02:13:21;6.50;;;2.57;;
78312;SDS011;67568;47.438;21.408;2023-08-06T02:15:47;7.60;;;2.83;;
78312;SDS011;67568;47.438;21.408;2023-08-06T02:18:14;7.50;;;2.67;;
78312;SDS011;67568;47.438;21.408;2023-08-06T02:20:43;5.53;;;2.60;;
78312;SDS011;67568;47.438;21.408;2023-08-06T02:23:09;5.35;;;2.50;;
78312;SDS011;67568;47.438;21.408;2023-08-06T02:25:36;6.13;;;2.30;;
78312;SDS011;67568;47.438;21.408;2023-08-06T02:28:03;5.65;;;2.20;;
78312;SDS011;67568;47.438;21.408;2023-08-06T02:30:30;6.90;;;2.65;;
78312;SDS011;67568;47.438;21.408;2023-08-06T02:32:57;12.52;;;2.95;;
78312;SDS011;67568;47.438;21.408;2023-08-06T02:35:23;11.15;;;2.60;;
78312;SDS011;67568;47.438;21.408;2023-08-06T02:37:50;6.43;;;2.50;;
78312;SDS011;67568;47.438;21.408;2023-08-06T02:40:17;7.65;;;2.42;;
78312;SDS011;67568;47.438;21.408;2023-08-06T02:42:43;6.78;;;2.30;;
78312;SDS011;67568;47.438;21.408;2023-08-06T02:45:10;8.02;;;2.58;;
78312;SDS011;67568;47.438;21.408;2023-08-06T02:47:37;8.82;;;2.50;;
78312;SDS011;67568;47.438;21.408;2023-08-06T02:50:04;6.30;;;2.40;;
78312;SDS011;67568;47.438;21.408;2023-08-06T02:52:31;8.93;;;2.92;;
78312;SDS011;67568;47.438;21.408;2023-08-06T02:54:58;8.77;;;2.42;;
78312;SDS011;67568;47.438;21.408;2023-08-06T02:57:24;5.82;;;2.30;;
78312;SDS011;67568;47.438;21.408;2023-08-06T02:59:51;7.25;;;2.30;;
78312;SDS011;67568;47.438;21.408;2023-08-06T03:02:18;7.53;;;2.13;;
78312;SDS011;67568;47.438;21.408;2023-08-06T03:04:45;6.53;;;2.42;;
78312;SDS011;67568;47.438;21.408;2023-08-06T03:07:11;6.05;;;2.50;;
78312;SDS011;67568;47.438;21.408;2023-08-06T03:09:38;7.03;;;2.60;;
78312;SDS011;67568;47.438;21.408;2023-08-06T03:12:05;7.32;;;2.60;;
78312;SDS011;67568;47.438;21.408;2023-08-06T03:14:32;5.20;;;2.50;;
78312;SDS011;67568;47.438;21.408;2023-08-06T03:16:59;6.55;;;2.38;;
78312;SDS011;67568;47.438;21.408;2023-08-06T03:19:26;8.68;;;2.58;;
78312;SDS011;67568;47.438;21.408;2023-08-06T03:21:52;6.57;;;2.53;;
78312;SDS011;67568;47.438;21.408;2023-08-06T03:24:20;6.85;;;2.75;;
78312;SDS011;67568;47.438;21.408;2023-08-06T03:26:46;7.23;;;2.83;;
78312;SDS011;67568;47.438;21.408;2023-08-06T03:29:13;6.45;;;3.00;;
78312;SDS011;67568;47.438;21.408;2023-08-06T03:31:40;6.03;;;2.58;;
78312;SDS011;67568;47.438;21.408;2023-08-06T03:34:07;8.57;;;2.80;;
78312;SDS011;67568;47.438;21.408;2023-08-06T03:36:33;9.48;;;2.65;;
78312;SDS011;67568;47.438;21.408;2023-08-06T03:39:03;6.50;;;2.60;;
78312;SDS011;67568;47.438;21.408;2023-08-06T03:41:31;6.28;;;2.40;;
78312;SDS011;67568;47.438;21.408;2023-08-06T03:43:58;7.03;;;2.70;;
78312;SDS011;67568;47.438;21.408;2023-08-06T03:46:25;8.13;;;2.60;;
78312;SDS011;67568;47.438;21.408;2023-08-06T03:48:51;7.05;;;2.55;;
78312;SDS011;67568;47.438;21.408;2023-08-06T03:51:18;6.20;;;2.67;;
78312;SDS011;67568;47.438;21.408;2023-08-06T03:53:45;6.40;;;2.78;;
78312;SDS011;67568;47.438;21.408;2023-08-06T03:56:12;6.20;;;2.78;;
78312;SDS011;67568;47.438;21.408;2023-08-06T03:58:39;9.77;;;2.92;;
78312;SDS011;67568;47.438;21.408;2023-08-06T04:01:05;7.38;;;2.85;;
78312;SDS011;67568;47.438;21.408;2023-08-06T04:03:32;7.57;;;2.80;;
78312;SDS011;67568;47.438;21.408;2023-08-06T04:05:59;7.80;;;2.80;;
78312;SDS011;67568;47.438;21.408;2023-08-06T04:08:26;6.88;;;3.10;;
78312;SDS011;67568;47.438;21.408;2023-08-06T04:10:53;6.10;;;2.63;;
78312;SDS011;67568;47.438;21.408;2023-08-06T04:13:20;5.82;;;2.50;;
78312;SDS011;67568;47.438;21.408;2023-08-06T04:15:47;6.17;;;2.47;;
78312;SDS011;67568;47.438;21.408;2023-08-06T04:18:13;7.80;;;2.80;;
78312;SDS011;67568;47.438;21.408;2023-08-06T04:20:44;8.25;;;2.50;;
78312;SDS011;67568;47.438;21.408;2023-08-06T04:23:12;7.13;;;2.90;;
78312;SDS011;67568;47.438;21.408;2023-08-06T04:25:38;6.53;;;2.38;;
78312;SDS011;67568;47.438;21.408;2023-08-06T04:28:08;6.83;;;2.60;;
78312;SDS011;67568;47.438;21.408;2023-08-06T04:30:36;6.03;;;2.75;;
78312;SDS011;67568;47.438;21.408;2023-08-06T04:33:03;5.88;;;2.40;;
78312;SDS011;67568;47.438;21.408;2023-08-06T04:35:30;5.25;;;2.20;;
78312;SDS011;67568;47.438;21.408;2023-08-06T04:37:57;7.35;;;2.58;;
78312;SDS011;67568;47.438;21.408;2023-08-06T04:40:24;5.33;;;2.43;;
78312;SDS011;67568;47.438;21.408;2023-08-06T04:42:51;5.78;;;2.33;;
78312;SDS011;67568;47.438;21.408;2023-08-06T04:45:18;5.95;;;2.30;;
78312;SDS011;67568;47.438;21.408;2023-08-06T04:47:45;4.85;;;2.25;;
78312;SDS011;67568;47.438;21.408;2023-08-06T04:50:12;5.18;;;1.95;;
78312;SDS011;67568;47.438;21.408;2023-08-06T04:52:38;6.40;;;2.37;;
78312;SDS011;67568;47.438;21.408;2023-08-06T04:55:10;8.48;;;2.55;;
78312;SDS011;67568;47.438;21.408;2023-08-06T04:57:37;5.40;;;2.00;;
78312;SDS011;67568;47.438;21.408;2023-08-06T05:00:04;4.60;;;1.80;;
78312;SDS011;67568;47.438;21.408;2023-08-06T05:02:31;5.45;;;2.35;;
78312;SDS011;67568;47.438;21.408;2023-08-06T05:04:58;9.57;;;2.67;;
78312;SDS011;67568;47.438;21.408;2023-08-06T05:07:25;4.90;;;2.22;;
78312;SDS011;67568;47.438;21.408;2023-08-06T05:09:52;6.40;;;2.20;;
78312;SDS011;67568;47.438;21.408;2023-08-06T05:12:19;5.13;;;2.03;;
78312;SDS011;67568;47.438;21.408;2023-08-06T05:14:45;5.72;;;2.00;;
78312;SDS011;67568;47.438;21.408;2023-08-06T05:17:12;5.30;;;2.00;;
78312;SDS011;67568;47.438;21.408;2023-08-06T05:19:39;4.63;;;2.25;;
78312;SDS011;67568;47.438;21.408;2023-08-06T05:22:12;5.75;;;2.25;;
78312;SDS011;67568;47.438;21.408;2023-08-06T05:24:39;5.55;;;2.40;;
78312;SDS011;67568;47.438;21.408;2023-08-06T05:27:06;6.80;;;2.10;;
78312;SDS011;67568;47.438;21.408;2023-08-06T05:29:32;5.10;;;2.00;;
78312;SDS011;67568;47.438;21.408;2023-08-06T05:31:59;4.72;;;2.08;;
78312;SDS011;67568;47.438;21.408;2023-08-06T05:34:26;6.28;;;2.28;;
78312;SDS011;67568;47.438;21.408;2023-08-06T05:36:55;5.85;;;2.00;;
78312;SDS011;67568;47.438;21.408;2023-08-06T05:39:22;4.22;;;1.90;;
78312;SDS011;67568;47.438;21.408;2023-08-06T05:41:48;7.23;;;2.00;;
78312;SDS011;67568;47.438;21.408;2023-08-06T05:44:15;5.40;;;2.17;;
78312;SDS011;67568;47.438;21.408;2023-08-06T05:46:42;5.43;;;1.98;;
78312;SDS011;67568;47.438;21.408;2023-08-06T05:49:08;5.35;;;2.30;;
78312;SDS011;67568;47.438;21.408;2023-08-06T05:51:35;6.20;;;2.30;;
78312;SDS011;67568;47.438;21.408;2023-08-06T05:54:02;5.47;;;2.40;;
78312;SDS011;67568;47.438;21.408;2023-08-06T05:56:29;5.40;;;2.20;;
78312;SDS011;67568;47.438;21.408;2023-08-06T05:58:56;5.03;;;2.20;;
78312;SDS011;67568;47.438;21.408;2023-08-06T06:01:24;4.90;;;1.98;;
78312;SDS011;67568;47.438;21.408;2023-08-06T06:03:51;5.82;;;2.28;;
78312;SDS011;67568;47.438;21.408;2023-08-06T06:06:18;5.67;;;2.47;;
78312;SDS011;67568;47.438;21.408;2023-08-06T06:08:45;6.22;;;2.00;;
78312;SDS011;67568;47.438;21.408;2023-08-06T06:11:12;6.43;;;2.33;;
78312;SDS011;67568;47.438;21.408;2023-08-06T06:13:39;5.60;;;2.42;;
78312;SDS011;67568;47.438;21.408;2023-08-06T06:16:07;8.50;;;2.15;;
78312;SDS011;67568;47.438;21.408;2023-08-06T06:18:34;6.23;;;2.27;;
78312;SDS011;67568;47.438;21.408;2023-08-06T06:21:01;8.25;;;2.08;;
78312;SDS011;67568;47.438;21.408;2023-08-06T06:23:27;5.40;;;1.98;;
78312;SDS011;67568;47.438;21.408;2023-08-06T06:25:54;12.25;;;2.40;;
78312;SDS011;67568;47.438;21.408;2023-08-06T06:28:21;17.25;;;2.45;;
78312;SDS011;67568;47.438;21.408;2023-08-06T06:30:48;7.33;;;2.40;;
78312;SDS011;67568;47.438;21.408;2023-08-06T06:33:15;6.43;;;2.55;;
78312;SDS011;67568;47.438;21.408;2023-08-06T06:35:42;6.28;;;2.30;;
78312;SDS011;67568;47.438;21.408;2023-08-06T06:38:08;4.80;;;1.90;;
78312;SDS011;67568;47.438;21.408;2023-08-06T06:40:35;6.47;;;1.70;;
78312;SDS011;67568;47.438;21.408;2023-08-06T06:43:02;5.87;;;1.83;;
78312;SDS011;67568;47.438;21.408;2023-08-06T06:45:29;6.88;;;2.20;;
78312;SDS011;67568;47.438;21.408;2023-08-06T06:47:55;5.50;;;2.05;;
78312;SDS011;67568;47.438;21.408;2023-08-06T06:50:22;5.40;;;1.80;;
78312;SDS011;67568;47.438;21.408;2023-08-06T06:52:49;4.80;;;2.00;;
78312;SDS011;67568;47.438;21.408;2023-08-06T06:55:15;5.77;;;1.97;;
78312;SDS011;67568;47.438;21.408;2023-08-06T06:57:42;5.07;;;1.90;;
78312;SDS011;67568;47.438;21.408;2023-08-06T07:00:09;5.55;;;2.00;;
78312;SDS011;67568;47.438;21.408;2023-08-06T07:02:36;5.50;;;1.95;;
78312;SDS011;67568;47.438;21.408;2023-08-06T07:05:03;4.75;;;2.10;;
78312;SDS011;67568;47.438;21.408;2023-08-06T07:07:30;4.90;;;1.70;;
78312;SDS011;67568;47.438;21.408;2023-08-06T07:09:57;5.57;;;1.70;;
78312;SDS011;67568;47.438;21.408;2023-08-06T07:12:23;6.47;;;1.80;;
78312;SDS011;67568;47.438;21.408;2023-08-06T07:14:50;5.00;;;1.50;;
78312;SDS011;67568;47.438;21.408;2023-08-06T07:17:17;7.05;;;1.40;;
78312;SDS011;67568;47.438;21.408;2023-08-06T07:19:43;8.30;;;1.67;;
78312;SDS011;67568;47.438;21.408;2023-08-06T07:22:10;11.15;;;1.70;;
78312;SDS011;67568;47.438;21.408;2023-08-06T07:24:40;3.80;;;1.30;;
78312;SDS011;67568;47.438;21.408;2023-08-06T07:27:07;5.63;;;1.50;;
78312;SDS011;67568;47.438;21.408;2023-08-06T07:29:33;4.28;;;1.70;;
78312;SDS011;67568;47.438;21.408;2023-08-06T07:32:00;4.53;;;1.73;;
78312;SDS011;67568;47.438;21.408;2023-08-06T07:34:27;5.38;;;1.70;;
78312;SDS011;67568;47.438;21.408;2023-08-06T07:36:54;6.60;;;2.00;;
78312;SDS011;67568;47.438;21.408;2023-08-06T07:39:21;7.72;;;1.85;;
78312;SDS011;67568;47.438;21.408;2023-08-06T07:41:48;5.72;;;2.00;;
78312;SDS011;67568;47.438;21.408;2023-08-06T07:44:14;5.37;;;1.90;;
78312;SDS011;67568;47.438;21.408;2023-08-06T07:46:41;5.53;;;2.17;;
78312;SDS011;67568;47.438;21.408;2023-08-06T07:49:09;4.30;;;1.88;;
78312;SDS011;67568;47.438;21.408;2023-08-06T07:51:35;5.10;;;2.20;;
78312;SDS011;67568;47.438;21.408;2023-08-06T07:54:02;7.60;;;2.22;;
78312;SDS011;67568;47.438;21.408;2023-08-06T07:56:31;7.10;;;2.37;;
78312;SDS011;67568;47.438;21.408;2023-08-06T07:58:58;5.75;;;2.35;;
78312;SDS011;67568;47.438;21.408;2023-08-06T08:01:26;5.18;;;2.20;;
78312;SDS011;67568;47.438;21.408;2023-08-06T08:03:52;6.82;;;2.30;;
78312;SDS011;67568;47.438;21.408;2023-08-06T08:06:21;6.07;;;2.47;;
78312;SDS011;67568;47.438;21.408;2023-08-06T08:08:48;6.07;;;2.73;;
78312;SDS011;67568;47.438;21.408;2023-08-06T08:11:15;5.45;;;2.65;;
78312;SDS011;67568;47.438;21.408;2023-08-06T08:13:42;6.38;;;2.63;;
78312;SDS011;67568;47.438;21.408;2023-08-06T08:16:09;5.68;;;2.58;;
78312;SDS011;67568;47.438;21.408;2023-08-06T08:18:36;5.63;;;2.60;;
78312;SDS011;67568;47.438;21.408;2023-08-06T08:21:03;6.60;;;3.13;;
78312;SDS011;67568;47.438;21.408;2023-08-06T08:23:30;6.13;;;3.00;;
78312;SDS011;67568;47.438;21.408;2023-08-06T08:25:56;9.07;;;3.22;;
78312;SDS011;67568;47.438;21.408;2023-08-06T08:28:23;7.45;;;3.60;;
78312;SDS011;67568;47.438;21.408;2023-08-06T08:30:50;6.53;;;3.30;;
78312;SDS011;67568;47.438;21.408;2023-08-06T08:33:16;7.83;;;3.50;;
78312;SDS011;67568;47.438;21.408;2023-08-06T08:35:45;8.02;;;2.90;;
78312;SDS011;67568;47.438;21.408;2023-08-06T08:38:12;7.55;;;3.25;;
78312;SDS011;67568;47.438;21.408;2023-08-06T08:40:41;7.35;;;3.55;;
78312;SDS011;67568;47.438;21.408;2023-08-06T08:43:13;7.00;;;3.67;;
78312;SDS011;67568;47.438;21.408;2023-08-06T08:45:43;7.03;;;3.47;;
78312;SDS011;67568;47.438;21.408;2023-08-06T08:48:12;7.20;;;3.28;;
78312;SDS011;67568;47.438;21.408;2023-08-06T08:50:40;6.82;;;3.42;;
78312;SDS011;67568;47.438;21.408;2023-08-06T08:53:08;6.57;;;3.15;;
78312;SDS011;67568;47.438;21.408;2023-08-06T08:55:37;8.48;;;3.20;;
78312;SDS011;67568;47.438;21.408;2023-08-06T08:58:05;6.27;;;3.20;;
78312;SDS011;67568;47.438;21.408;2023-08-06T09:00:32;8.50;;;3.20;;
78312;SDS011;67568;47.438;21.408;2023-08-06T09:02:59;10.00;;;3.17;;
78312;SDS011;67568;47.438;21.408;2023-08-06T09:05:28;7.50;;;2.88;;
78312;SDS011;67568;47.438;21.408;2023-08-06T09:07:56;6.97;;;3.63;;
78312;SDS011;67568;47.438;21.408;2023-08-06T09:10:30;7.80;;;3.60;;
78312;SDS011;67568;47.438;21.408;2023-08-06T09:12:57;7.30;;;3.92;;
78312;SDS011;67568;47.438;21.408;2023-08-06T09:15:25;9.30;;;5.07;;
78312;SDS011;67568;47.438;21.408;2023-08-06T09:17:52;10.15;;;5.07;;
78312;SDS011;67568;47.438;21.408;2023-08-06T09:20:20;9.13;;;5.20;;
78312;SDS011;67568;47.438;21.408;2023-08-06T09:22:47;9.53;;;5.00;;
78312;SDS011;67568;47.438;21.408;2023-08-06T09:25:23;10.50;;;5.75;;
78312;SDS011;67568;47.438;21.408;2023-08-06T09:27:51;11.93;;;5.47;;
78312;SDS011;67568;47.438;21.408;2023-08-06T09:30:31;8.43;;;5.13;;
78312;SDS011;67568;47.438;21.408;2023-08-06T09:32:59;10.50;;;6.25;;
78312;SDS011;67568;47.438;21.408;2023-08-06T09:35:29;12.63;;;7.80;;
78312;SDS011;67568;47.438;21.408;2023-08-06T09:38:07;10.70;;;7.13;;
78312;SDS011;67568;47.438;21.408;2023-08-06T09:40:34;12.27;;;6.60;;
78312;SDS011;67568;47.438;21.408;2023-08-06T09:43:01;9.73;;;6.22;;
78312;SDS011;67568;47.438;21.408;2023-08-06T09:45:32;11.10;;;7.25;;
78312;SDS011;67568;47.438;21.408;2023-08-06T09:48:03;10.27;;;6.73;;
78312;SDS011;67568;47.438;21.408;2023-08-06T09:50:35;11.77;;;6.40;;
78312;SDS011;67568;47.438;21.408;2023-08-06T09:53:06;9.80;;;6.03;;
78312;SDS011;67568;47.438;21.408;2023-08-06T09:55:35;10.05;;;6.07;;
78312;SDS011;67568;47.438;21.408;2023-08-06T09:58:01;10.52;;;6.47;;
78312;SDS011;67568;47.438;21.408;2023-08-06T10:00:28;9.87;;;6.43;;
78312;SDS011;67568;47.438;21.408;2023-08-06T10:02:55;10.23;;;6.32;;
78312;SDS011;67568;47.438;21.408;2023-08-06T10:05:27;8.73;;;5.45;;
78312;SDS011;67568;47.438;21.408;2023-08-06T10:07:55;8.60;;;5.03;;
78312;SDS011;67568;47.438;21.408;2023-08-06T10:10:23;8.60;;;5.50;;
78312;SDS011;67568;47.438;21.408;2023-08-06T10:12:52;9.33;;;5.47;;
78312;SDS011;67568;47.438;21.408;2023-08-06T10:15:24;7.88;;;4.60;;
78312;SDS011;67568;47.438;21.408;2023-08-06T10:17:54;9.15;;;5.05;;
78312;SDS011;67568;47.438;21.408;2023-08-06T10:20:23;9.20;;;5.13;;
78312;SDS011;67568;47.438;21.408;2023-08-06T10:23:00;8.32;;;5.03;;
78312;SDS011;67568;47.438;21.408;2023-08-06T10:25:31;8.37;;;4.97;;
78312;SDS011;67568;47.438;21.408;2023-08-06T10:27:59;9.52;;;5.28;;
78312;SDS011;67568;47.438;21.408;2023-08-06T10:30:27;8.05;;;5.07;;
78312;SDS011;67568;47.438;21.408;2023-08-06T10:35:35;8.00;;;4.80;;
78312;SDS011;67568;47.438;21.408;2023-08-06T10:40:36;7.38;;;4.68;;
78312;SDS011;67568;47.438;21.408;2023-08-06T10:43:06;11.57;;;5.32;;
78312;SDS011;67568;47.438;21.408;2023-08-06T10:45:37;7.38;;;4.78;;
78312;SDS011;67568;47.438;21.408;2023-08-06T10:48:04;7.97;;;4.82;;
78312;SDS011;67568;47.438;21.408;2023-08-06T10:50:31;8.73;;;5.47;;
78312;SDS011;67568;47.438;21.408;2023-08-06T10:52:58;8.88;;;5.97;;
78312;SDS011;67568;47.438;21.408;2023-08-06T10:55:32;9.18;;;5.70;;
78312;SDS011;67568;47.438;21.408;2023-08-06T10:57:59;10.07;;;6.38;;
78312;SDS011;67568;47.438;21.408;2023-08-06T11:00:26;9.30;;;6.38;;
78312;SDS011;67568;47.438;21.408;2023-08-06T11:02:53;10.23;;;6.43;;
78312;SDS011;67568;47.438;21.408;2023-08-06T11:05:22;9.77;;;5.50;;
78312;SDS011;67568;47.438;21.408;2023-08-06T11:07:49;8.73;;;5.30;;
78312;SDS011;67568;47.438;21.408;2023-08-06T11:10:16;6.20;;;3.30;;
78312;SDS011;67568;47.438;21.408;2023-08-06T11:12:42;5.47;;;3.10;;
78312;SDS011;67568;47.438;21.408;2023-08-06T11:15:09;6.17;;;3.37;;
78312;SDS011;67568;47.438;21.408;2023-08-06T11:17:37;5.63;;;2.85;;
78312;SDS011;67568;47.438;21.408;2023-08-06T11:20:08;5.65;;;2.97;;
78312;SDS011;67568;47.438;21.408;2023-08-06T11:22:36;5.70;;;2.50;;
78312;SDS011;67568;47.438;21.408;2023-08-06T11:25:03;5.10;;;2.40;;
78312;SDS011;67568;47.438;21.408;2023-08-06T11:27:31;5.20;;;2.47;;
78312;SDS011;67568;47.438;21.408;2023-08-06T11:29:58;5.75;;;2.40;;
78312;SDS011;67568;47.438;21.408;2023-08-06T11:32:25;5.05;;;2.38;;
78312;SDS011;67568;47.438;21.408;2023-08-06T11:34:52;5.20;;;2.30;;
78312;SDS011;67568;47.438;21.408;2023-08-06T11:37:20;6.30;;;2.97;;
78312;SDS011;67568;47.438;21.408;2023-08-06T11:39:48;5.57;;;2.40;;
78312;SDS011;67568;47.438;21.408;2023-08-06T11:42:16;5.90;;;2.90;;
78312;SDS011;67568;47.438;21.408;2023-08-06T11:44:45;5.25;;;2.40;;
78312;SDS011;67568;47.438;21.408;2023-08-06T11:47:14;5.35;;;2.58;;
78312;SDS011;67568;47.438;21.408;2023-08-06T11:49:43;5.40;;;2.58;;
78312;SDS011;67568;47.438;21.408;2023-08-06T11:52:20;4.67;;;1.93;;
78312;SDS011;67568;47.438;21.408;2023-08-06T11:57:28;4.70;;;1.80;;
78312;SDS011;67568;47.438;21.408;2023-08-06T12:00:08;4.25;;;2.10;;
78312;SDS011;67568;47.438;21.408;2023-08-06T12:02:40;5.65;;;1.73;;
78312;SDS011;67568;47.438;21.408;2023-08-06T12:05:11;4.20;;;1.80;;
78312;SDS011;67568;47.438;21.408;2023-08-06T12:07:48;3.85;;;1.60;;
78312;SDS011;67568;47.438;21.408;2023-08-06T12:10:17;3.58;;;1.60;;
78312;SDS011;67568;47.438;21.408;2023-08-06T12:12:44;3.88;;;1.35;;
78312;SDS011;67568;47.438;21.408;2023-08-06T12:15:12;3.33;;;1.30;;
78312;SDS011;67568;47.438;21.408;2023-08-06T12:17:38;3.37;;;1.30;;
78312;SDS011;67568;47.438;21.408;2023-08-06T12:20:06;2.13;;;1.20;;
78312;SDS011;67568;47.438;21.408;2023-08-06T12:22:33;2.25;;;1.20;;
78312;SDS011;67568;47.438;21.408;2023-08-06T12:25:02;2.35;;;1.20;;
78312;SDS011;67568;47.438;21.408;2023-08-06T12:27:30;1.90;;;0.90;;
78312;SDS011;67568;47.438;21.408;2023-08-06T12:29:56;1.47;;;0.80;;
78312;SDS011;67568;47.438;21.408;2023-08-06T12:32:23;2.30;;;0.80;;
78312;SDS011;67568;47.438;21.408;2023-08-06T12:34:50;3.28;;;0.80;;
78312;SDS011;67568;47.438;21.408;2023-08-06T12:37:19;1.75;;;0.80;;
78312;SDS011;67568;47.438;21.408;2023-08-06T12:39:46;1.70;;;0.80;;
78312;SDS011;67568;47.438;21.408;2023-08-06T12:42:13;2.03;;;0.80;;
78312;SDS011;67568;47.438;21.408;2023-08-06T12:44:39;2.33;;;0.85;;
78312;SDS011;67568;47.438;21.408;2023-08-06T12:47:07;1.50;;;0.85;;
78312;SDS011;67568;47.438;21.408;2023-08-06T12:49:34;2.72;;;0.90;;
78312;SDS011;67568;47.438;21.408;2023-08-06T12:52:02;2.85;;;1.05;;
78312;SDS011;67568;47.438;21.408;2023-08-06T12:54:29;1.70;;;0.93;;
78312;SDS011;67568;47.438;21.408;2023-08-06T12:56:55;1.92;;;0.85;;
78312;SDS011;67568;47.438;21.408;2023-08-06T12:59:22;1.75;;;0.80;;
78312;SDS011;67568;47.438;21.408;2023-08-06T13:01:49;1.70;;;0.80;;
78312;SDS011;67568;47.438;21.408;2023-08-06T13:04:16;1.70;;;0.80;;
78312;SDS011;67568;47.438;21.408;2023-08-06T13:06:48;1.80;;;1.00;;
78312;SDS011;67568;47.438;21.408;2023-08-06T13:09:15;2.00;;;0.82;;
78312;SDS011;67568;47.438;21.408;2023-08-06T13:11:48;1.33;;;0.77;;
78312;SDS011;67568;47.438;21.408;2023-08-06T13:14:18;1.65;;;0.80;;
78312;SDS011;67568;47.438;21.408;2023-08-06T13:16:45;1.50;;;0.80;;
78312;SDS011;67568;47.438;21.408;2023-08-06T13:19:11;2.20;;;0.77;;
78312;SDS011;67568;47.438;21.408;2023-08-06T13:24:08;1.30;;;0.70;;
78312;SDS011;67568;47.438;21.408;2023-08-06T13:26:35;1.40;;;0.85;;
78312;SDS011;67568;47.438;21.408;2023-08-06T13:29:02;1.40;;;0.80;;
78312;SDS011;67568;47.438;21.408;2023-08-06T13:31:29;1.83;;;0.60;;
78312;SDS011;67568;47.438;21.408;2023-08-06T13:33:56;1.73;;;0.90;;
78312;SDS011;67568;47.438;21.408;2023-08-06T13:36:24;1.90;;;0.95;;
78312;SDS011;67568;47.438;21.408;2023-08-06T13:38:51;2.65;;;1.10;;
78312;SDS011;67568;47.438;21.408;2023-08-06T13:41:19;1.77;;;1.00;;
78312;SDS011;67568;47.438;21.408;2023-08-06T13:43:46;3.13;;;0.83;;
78312;SDS011;67568;47.438;21.408;2023-08-06T13:46:13;2.22;;;0.85;;
78312;SDS011;67568;47.438;21.408;2023-08-06T13:48:46;3.28;;;1.20;;
78312;SDS011;67568;47.438;21.408;2023-08-06T13:51:14;2.15;;;0.95;;
78312;SDS011;67568;47.438;21.408;2023-08-06T13:53:41;1.83;;;0.70;;
78312;SDS011;67568;47.438;21.408;2023-08-06T13:56:08;2.43;;;0.80;;
78312;SDS011;67568;47.438;21.408;2023-08-06T13:58:36;2.65;;;0.95;;
78312;SDS011;67568;47.438;21.408;2023-08-06T14:01:03;3.00;;;0.80;;
78312;SDS011;67568;47.438;21.408;2023-08-06T14:03:30;2.38;;;0.75;;
78312;SDS011;67568;47.438;21.408;2023-08-06T14:05:57;1.90;;;0.90;;
78312;SDS011;67568;47.438;21.408;2023-08-06T14:08:26;2.17;;;0.93;;
78312;SDS011;67568;47.438;21.408;2023-08-06T14:10:53;2.38;;;1.10;;
78312;SDS011;67568;47.438;21.408;2023-08-06T14:13:23;2.42;;;1.00;;
78312;SDS011;67568;47.438;21.408;2023-08-06T14:15:50;2.40;;;1.10;;
78312;SDS011;67568;47.438;21.408;2023-08-06T14:18:17;2.10;;;1.00;;
78312;SDS011;67568;47.438;21.408;2023-08-06T14:20:44;2.17;;;1.00;;
78312;SDS011;67568;47.438;21.408;2023-08-06T14:23:11;3.05;;;1.02;;
78312;SDS011;67568;47.438;21.408;2023-08-06T14:25:40;2.03;;;1.00;;
78312;SDS011;67568;47.438;21.408;2023-08-06T14:28:07;1.80;;;1.02;;
78312;SDS011;67568;47.438;21.408;2023-08-06T14:30:36;3.17;;;0.88;;
78312;SDS011;67568;47.438;21.408;2023-08-06T14:33:03;1.53;;;0.83;;
78312;SDS011;67568;47.438;21.408;2023-08-06T14:35:46;2.28;;;1.10;;
78312;SDS011;67568;47.438;21.408;2023-08-06T14:38:13;2.50;;;1.15;;
78312;SDS011;67568;47.438;21.408;2023-08-06T14:40:40;2.58;;;0.90;;
78312;SDS011;67568;47.438;21.408;2023-08-06T14:43:07;1.85;;;0.80;;
78312;SDS011;67568;47.438;21.408;2023-08-06T14:45:37;2.80;;;1.00;;
78312;SDS011;67568;47.438;21.408;2023-08-06T14:48:07;2.17;;;0.90;;
78312;SDS011;67568;47.438;21.408;2023-08-06T14:50:34;1.90;;;0.90;;
78312;SDS011;67568;47.438;21.408;2023-08-06T14:53:01;2.85;;;0.90;;